sensor_id;sensor_type;location;lat;lon;timestamp;P1;durP1;ratioP1;P2;durP2;ratioP2
43325;SDS011;28920;59.862;30.636;2022-10-15T00:04:02;6.40;;;3.00;;
43325;SDS011;28920;59.862;30.636;2022-10-15T00:06:30;7.25;;;3.50;;
43325;SDS011;28920;59.862;30.636;2022-10-15T00:08:57;11.95;;;3.60;;
43325;SDS011;28920;59.862;30.636;2022-10-15T00:11:25;5.55;;;2.95;;
43325;SDS011;28920;59.862;30.636;2022-10-15T00:13:54;6.62;;;3.45;;
43325;SDS011;28920;59.862;30.636;2022-10-15T00:16:24;7.85;;;4.65;;
43325;SDS011;28920;59.862;30.636;2022-10-15T00:18:54;11.15;;;5.85;;
43325;SDS011;28920;59.862;30.636;2022-10-15T00:26:21;8.65;;;4.07;;
43325;SDS011;28920;59.862;30.636;2022-10-15T00:28:49;19.92;;;6.65;;
43325;SDS011;28920;59.862;30.636;2022-10-15T00:31:19;10.23;;;4.28;;
43325;SDS011;28920;59.862;30.636;2022-10-15T00:33:48;6.00;;;4.70;;
43325;SDS011;28920;59.862;30.636;2022-10-15T00:36:16;7.20;;;4.43;;
43325;SDS011;28920;59.862;30.636;2022-10-15T00:38:43;4.87;;;3.30;;
43325;SDS011;28920;59.862;30.636;2022-10-15T00:41:11;7.00;;;3.90;;
43325;SDS011;28920;59.862;30.636;2022-10-15T00:48:37;6.68;;;3.20;;
43325;SDS011;28920;59.862;30.636;2022-10-15T00:51:07;6.15;;;3.72;;
43325;SDS011;28920;59.862;30.636;2022-10-15T00:53:35;6.82;;;3.55;;
43325;SDS011;28920;59.862;30.636;2022-10-15T00:56:01;5.90;;;3.08;;
43325;SDS011;28920;59.862;30.636;2022-10-15T00:58:28;6.75;;;3.17;;
43325;SDS011;28920;59.862;30.636;2022-10-15T01:00:56;6.40;;;3.67;;
43325;SDS011;28920;59.862;30.636;2022-10-15T01:03:23;4.93;;;3.22;;
43325;SDS011;28920;59.862;30.636;2022-10-15T01:10:35;6.60;;;3.90;;
43325;SDS011;28920;59.862;30.636;2022-10-15T01:13:06;5.10;;;3.35;;
43325;SDS011;28920;59.862;30.636;2022-10-15T01:15:41;5.70;;;3.80;;
43325;SDS011;28920;59.862;30.636;2022-10-15T01:18:11;4.50;;;3.40;;
43325;SDS011;28920;59.862;30.636;2022-10-15T01:20:43;6.80;;;3.55;;
43325;SDS011;28920;59.862;30.636;2022-10-15T01:23:21;5.82;;;3.50;;
43325;SDS011;28920;59.862;30.636;2022-10-15T01:28:34;5.10;;;3.50;;
43325;SDS011;28920;59.862;30.636;2022-10-15T01:31:08;7.65;;;3.22;;
43325;SDS011;28920;59.862;30.636;2022-10-15T01:33:38;5.80;;;2.80;;
43325;SDS011;28920;59.862;30.636;2022-10-15T01:36:08;5.82;;;3.90;;
43325;SDS011;28920;59.862;30.636;2022-10-15T01:38:45;5.18;;;2.80;;
43325;SDS011;28920;59.862;30.636;2022-10-15T01:41:15;8.00;;;2.78;;
43325;SDS011;28920;59.862;30.636;2022-10-15T01:43:47;4.45;;;2.75;;
43325;SDS011;28920;59.862;30.636;2022-10-15T01:51:14;5.65;;;2.50;;
43325;SDS011;28920;59.862;30.636;2022-10-15T01:53:43;6.50;;;2.47;;
43325;SDS011;28920;59.862;30.636;2022-10-15T01:56:11;5.03;;;2.67;;
43325;SDS011;28920;59.862;30.636;2022-10-15T01:58:40;5.32;;;2.25;;
43325;SDS011;28920;59.862;30.636;2022-10-15T02:01:08;4.65;;;2.53;;
43325;SDS011;28920;59.862;30.636;2022-10-15T02:03:42;8.30;;;2.20;;
43325;SDS011;28920;59.862;30.636;2022-10-15T02:06:09;3.65;;;2.17;;
43325;SDS011;28920;59.862;30.636;2022-10-15T02:13:12;5.65;;;2.25;;
43325;SDS011;28920;59.862;30.636;2022-10-15T02:16:01;4.18;;;2.15;;
43325;SDS011;28920;59.862;30.636;2022-10-15T02:18:35;4.60;;;2.40;;
43325;SDS011;28920;59.862;30.636;2022-10-15T02:21:05;7.35;;;2.03;;
43325;SDS011;28920;59.862;30.636;2022-10-15T02:23:35;4.93;;;2.12;;
43325;SDS011;28920;59.862;30.636;2022-10-15T02:26:06;6.95;;;2.15;;
43325;SDS011;28920;59.862;30.636;2022-10-15T02:28:35;6.50;;;2.20;;
43325;SDS011;28920;59.862;30.636;2022-10-15T02:36:02;5.18;;;2.50;;
43325;SDS011;28920;59.862;30.636;2022-10-15T02:38:30;3.75;;;2.30;;
43325;SDS011;28920;59.862;30.636;2022-10-15T02:40:58;5.60;;;2.80;;
43325;SDS011;28920;59.862;30.636;2022-10-15T02:43:25;3.47;;;2.37;;
43325;SDS011;28920;59.862;30.636;2022-10-15T02:45:51;6.78;;;2.85;;
43325;SDS011;28920;59.862;30.636;2022-10-15T02:48:19;3.62;;;2.72;;
43325;SDS011;28920;59.862;30.636;2022-10-15T02:50:46;4.50;;;2.40;;
43325;SDS011;28920;59.862;30.636;2022-10-15T02:57:29;6.00;;;2.65;;
43325;SDS011;28920;59.862;30.636;2022-10-15T02:59:57;6.80;;;3.03;;
43325;SDS011;28920;59.862;30.636;2022-10-15T03:02:25;5.62;;;3.37;;
43325;SDS011;28920;59.862;30.636;2022-10-15T03:04:52;6.55;;;3.10;;
43325;SDS011;28920;59.862;30.636;2022-10-15T03:07:20;10.15;;;4.05;;
43325;SDS011;28920;59.862;30.636;2022-10-15T03:09:47;5.70;;;3.30;;
43325;SDS011;28920;59.862;30.636;2022-10-15T03:12:14;8.25;;;5.05;;
43325;SDS011;28920;59.862;30.636;2022-10-15T03:19:40;7.25;;;4.22;;
43325;SDS011;28920;59.862;30.636;2022-10-15T03:22:07;6.40;;;3.53;;
43325;SDS011;28920;59.862;30.636;2022-10-15T03:24:39;5.20;;;3.17;;
43325;SDS011;28920;59.862;30.636;2022-10-15T03:27:05;6.07;;;3.22;;
43325;SDS011;28920;59.862;30.636;2022-10-15T03:29:32;4.87;;;2.97;;
43325;SDS011;28920;59.862;30.636;2022-10-15T03:32:00;5.70;;;3.08;;
43325;SDS011;28920;59.862;30.636;2022-10-15T03:34:27;4.12;;;2.45;;
43325;SDS011;28920;59.862;30.636;2022-10-15T03:41:52;6.47;;;3.10;;
43325;SDS011;28920;59.862;30.636;2022-10-15T03:44:21;4.55;;;2.65;;
43325;SDS011;28920;59.862;30.636;2022-10-15T03:49:21;5.00;;;3.45;;
43325;SDS011;28920;59.862;30.636;2022-10-15T03:51:48;6.45;;;3.62;;
43325;SDS011;28920;59.862;30.636;2022-10-15T03:54:16;5.18;;;2.95;;
43325;SDS011;28920;59.862;30.636;2022-10-15T03:56:43;6.55;;;3.70;;
43325;SDS011;28920;59.862;30.636;2022-10-15T04:04:10;7.12;;;3.35;;
43325;SDS011;28920;59.862;30.636;2022-10-15T04:06:37;5.45;;;3.03;;
43325;SDS011;28920;59.862;30.636;2022-10-15T04:09:04;9.00;;;4.70;;
43325;SDS011;28920;59.862;30.636;2022-10-15T04:11:31;8.48;;;4.12;;
43325;SDS011;28920;59.862;30.636;2022-10-15T04:13:59;4.65;;;2.90;;
43325;SDS011;28920;59.862;30.636;2022-10-15T04:16:26;5.05;;;3.70;;
43325;SDS011;28920;59.862;30.636;2022-10-15T04:18:53;6.53;;;3.53;;
43325;SDS011;28920;59.862;30.636;2022-10-15T04:26:19;9.85;;;8.43;;
43325;SDS011;28920;59.862;30.636;2022-10-15T04:28:46;8.18;;;5.78;;
43325;SDS011;28920;59.862;30.636;2022-10-15T04:31:13;9.32;;;5.68;;
43325;SDS011;28920;59.862;30.636;2022-10-15T04:33:39;8.10;;;4.40;;
43325;SDS011;28920;59.862;30.636;2022-10-15T04:36:07;12.80;;;8.57;;
43325;SDS011;28920;59.862;30.636;2022-10-15T04:38:39;12.25;;;4.80;;
43325;SDS011;28920;59.862;30.636;2022-10-15T04:41:07;6.70;;;4.12;;
43325;SDS011;28920;59.862;30.636;2022-10-15T04:46:15;6.18;;;4.30;;
43325;SDS011;28920;59.862;30.636;2022-10-15T04:48:42;6.55;;;2.95;;
43325;SDS011;28920;59.862;30.636;2022-10-15T04:51:10;6.40;;;3.75;;
43325;SDS011;28920;59.862;30.636;2022-10-15T04:53:38;4.45;;;2.80;;
43325;SDS011;28920;59.862;30.636;2022-10-15T04:56:05;5.65;;;3.50;;
43325;SDS011;28920;59.862;30.636;2022-10-15T04:58:33;6.55;;;4.22;;
43325;SDS011;28920;59.862;30.636;2022-10-15T05:01:00;3.92;;;2.72;;
43325;SDS011;28920;59.862;30.636;2022-10-15T05:08:27;4.45;;;3.30;;
43325;SDS011;28920;59.862;30.636;2022-10-15T05:10:58;5.20;;;3.05;;
43325;SDS011;28920;59.862;30.636;2022-10-15T05:13:27;4.72;;;3.70;;
43325;SDS011;28920;59.862;30.636;2022-10-15T05:16:00;6.40;;;2.78;;
43325;SDS011;28920;59.862;30.636;2022-10-15T05:18:34;3.87;;;2.53;;
43325;SDS011;28920;59.862;30.636;2022-10-15T05:21:02;6.95;;;4.15;;
43325;SDS011;28920;59.862;30.636;2022-10-15T05:23:31;5.72;;;3.40;;
43325;SDS011;28920;59.862;30.636;2022-10-15T05:31:03;4.37;;;3.03;;
43325;SDS011;28920;59.862;30.636;2022-10-15T05:33:30;3.97;;;2.83;;
43325;SDS011;28920;59.862;30.636;2022-10-15T05:35:57;4.22;;;2.80;;
43325;SDS011;28920;59.862;30.636;2022-10-15T05:38:23;4.07;;;2.83;;
43325;SDS011;28920;59.862;30.636;2022-10-15T05:40:50;7.22;;;2.70;;
43325;SDS011;28920;59.862;30.636;2022-10-15T05:43:17;4.80;;;3.15;;
43325;SDS011;28920;59.862;30.636;2022-10-15T05:45:44;8.25;;;3.03;;
43325;SDS011;28920;59.862;30.636;2022-10-15T05:52:27;5.30;;;2.90;;
43325;SDS011;28920;59.862;30.636;2022-10-15T05:54:56;7.37;;;3.15;;
43325;SDS011;28920;59.862;30.636;2022-10-15T05:57:23;4.82;;;3.10;;
43325;SDS011;28920;59.862;30.636;2022-10-15T05:59:49;5.57;;;2.47;;
43325;SDS011;28920;59.862;30.636;2022-10-15T06:02:16;7.40;;;3.20;;
43325;SDS011;28920;59.862;30.636;2022-10-15T06:04:43;4.35;;;2.85;;
43325;SDS011;28920;59.862;30.636;2022-10-15T06:07:10;6.07;;;3.35;;
43325;SDS011;28920;59.862;30.636;2022-10-15T06:14:41;6.22;;;3.00;;
43325;SDS011;28920;59.862;30.636;2022-10-15T06:17:08;5.00;;;2.87;;
43325;SDS011;28920;59.862;30.636;2022-10-15T06:19:34;9.23;;;3.92;;
43325;SDS011;28920;59.862;30.636;2022-10-15T06:22:01;5.72;;;3.12;;
43325;SDS011;28920;59.862;30.636;2022-10-15T06:24:28;6.25;;;3.92;;
43325;SDS011;28920;59.862;30.636;2022-10-15T06:26:56;7.82;;;3.80;;
43325;SDS011;28920;59.862;30.636;2022-10-15T06:29:23;10.50;;;3.65;;
43325;SDS011;28920;59.862;30.636;2022-10-15T06:36:49;11.02;;;4.15;;
43325;SDS011;28920;59.862;30.636;2022-10-15T06:39:16;6.85;;;3.47;;
43325;SDS011;28920;59.862;30.636;2022-10-15T06:41:43;6.40;;;4.05;;
43325;SDS011;28920;59.862;30.636;2022-10-15T06:44:10;7.93;;;4.05;;
43325;SDS011;28920;59.862;30.636;2022-10-15T06:46:37;8.02;;;4.32;;
43325;SDS011;28920;59.862;30.636;2022-10-15T06:49:03;6.80;;;3.37;;
43325;SDS011;28920;59.862;30.636;2022-10-15T06:51:31;6.40;;;4.53;;
43325;SDS011;28920;59.862;30.636;2022-10-15T06:58:56;7.45;;;4.35;;
43325;SDS011;28920;59.862;30.636;2022-10-15T07:01:23;5.32;;;3.62;;
43325;SDS011;28920;59.862;30.636;2022-10-15T07:03:49;7.12;;;3.37;;
43325;SDS011;28920;59.862;30.636;2022-10-15T07:06:16;7.00;;;3.80;;
43325;SDS011;28920;59.862;30.636;2022-10-15T07:08:43;8.77;;;3.75;;
43325;SDS011;28920;59.862;30.636;2022-10-15T07:11:10;5.87;;;3.65;;
43325;SDS011;28920;59.862;30.636;2022-10-15T07:13:37;6.12;;;3.87;;
43325;SDS011;28920;59.862;30.636;2022-10-15T07:21:03;5.70;;;4.05;;
43325;SDS011;28920;59.862;30.636;2022-10-15T07:23:30;6.93;;;3.45;;
43325;SDS011;28920;59.862;30.636;2022-10-15T07:25:57;9.98;;;5.50;;
43325;SDS011;28920;59.862;30.636;2022-10-15T07:28:24;6.95;;;4.68;;
43325;SDS011;28920;59.862;30.636;2022-10-15T07:30:51;11.82;;;7.15;;
43325;SDS011;28920;59.862;30.636;2022-10-15T07:33:17;6.87;;;3.95;;
43325;SDS011;28920;59.862;30.636;2022-10-15T07:35:49;8.98;;;3.67;;
43325;SDS011;28920;59.862;30.636;2022-10-15T07:42:45;6.62;;;3.15;;
43325;SDS011;28920;59.862;30.636;2022-10-15T07:45:21;11.98;;;3.67;;
43325;SDS011;28920;59.862;30.636;2022-10-15T07:47:54;5.43;;;2.90;;
43325;SDS011;28920;59.862;30.636;2022-10-15T07:50:21;4.97;;;3.15;;
43325;SDS011;28920;59.862;30.636;2022-10-15T07:52:48;8.45;;;3.72;;
43325;SDS011;28920;59.862;30.636;2022-10-15T07:55:16;8.13;;;4.07;;
43325;SDS011;28920;59.862;30.636;2022-10-15T07:57:43;8.57;;;3.45;;
43325;SDS011;28920;59.862;30.636;2022-10-15T08:04:12;9.00;;;4.20;;
43325;SDS011;28920;59.862;30.636;2022-10-15T08:06:41;6.25;;;3.37;;
43325;SDS011;28920;59.862;30.636;2022-10-15T08:09:08;6.72;;;3.72;;
43325;SDS011;28920;59.862;30.636;2022-10-15T08:11:35;6.18;;;3.90;;
43325;SDS011;28920;59.862;30.636;2022-10-15T08:14:04;7.18;;;3.50;;
43325;SDS011;28920;59.862;30.636;2022-10-15T08:16:31;10.40;;;3.80;;
43325;SDS011;28920;59.862;30.636;2022-10-15T08:18:58;8.48;;;4.05;;
43325;SDS011;28920;59.862;30.636;2022-10-15T08:25:55;4.82;;;3.17;;
43325;SDS011;28920;59.862;30.636;2022-10-15T08:28:22;5.97;;;3.75;;
43325;SDS011;28920;59.862;30.636;2022-10-15T08:30:49;6.32;;;4.50;;
43325;SDS011;28920;59.862;30.636;2022-10-15T08:33:16;5.28;;;3.97;;
43325;SDS011;28920;59.862;30.636;2022-10-15T08:35:43;8.88;;;3.58;;
43325;SDS011;28920;59.862;30.636;2022-10-15T08:38:10;9.23;;;4.30;;
43325;SDS011;28920;59.862;30.636;2022-10-15T08:40:37;7.40;;;4.78;;
43325;SDS011;28920;59.862;30.636;2022-10-15T08:45:46;8.15;;;4.15;;
43325;SDS011;28920;59.862;30.636;2022-10-15T08:48:15;13.00;;;4.45;;
43325;SDS011;28920;59.862;30.636;2022-10-15T08:50:44;6.40;;;3.58;;
43325;SDS011;28920;59.862;30.636;2022-10-15T08:53:14;9.25;;;4.45;;
43325;SDS011;28920;59.862;30.636;2022-10-15T08:55:48;10.90;;;4.45;;
43325;SDS011;28920;59.862;30.636;2022-10-15T08:58:17;8.00;;;5.25;;
43325;SDS011;28920;59.862;30.636;2022-10-15T09:00:48;7.12;;;3.90;;
43325;SDS011;28920;59.862;30.636;2022-10-15T09:04:15;7.97;;;4.15;;
43325;SDS011;28920;59.862;30.636;2022-10-15T09:06:45;9.13;;;4.30;;
43325;SDS011;28920;59.862;30.636;2022-10-15T09:09:14;11.35;;;5.15;;
43325;SDS011;28920;59.862;30.636;2022-10-15T09:11:44;8.50;;;5.12;;
43325;SDS011;28920;59.862;30.636;2022-10-15T09:14:15;8.20;;;4.35;;
43325;SDS011;28920;59.862;30.636;2022-10-15T09:16:44;9.02;;;4.37;;
43325;SDS011;28920;59.862;30.636;2022-10-15T09:19:13;7.53;;;4.30;;
43325;SDS011;28920;59.862;30.636;2022-10-15T09:26:14;8.50;;;5.10;;
43325;SDS011;28920;59.862;30.636;2022-10-15T09:28:43;6.30;;;4.40;;
43325;SDS011;28920;59.862;30.636;2022-10-15T09:31:15;6.37;;;4.20;;
43325;SDS011;28920;59.862;30.636;2022-10-15T09:33:45;12.35;;;5.40;;
43325;SDS011;28920;59.862;30.636;2022-10-15T09:36:16;6.12;;;4.47;;
43325;SDS011;28920;59.862;30.636;2022-10-15T09:38:47;11.98;;;5.15;;
43325;SDS011;28920;59.862;30.636;2022-10-15T09:44:07;14.87;;;4.55;;
43325;SDS011;28920;59.862;30.636;2022-10-15T09:46:42;7.65;;;4.43;;
43325;SDS011;28920;59.862;30.636;2022-10-15T09:49:10;8.25;;;5.15;;
43325;SDS011;28920;59.862;30.636;2022-10-15T09:51:47;8.75;;;4.68;;
43325;SDS011;28920;59.862;30.636;2022-10-15T09:54:17;17.85;;;7.05;;
43325;SDS011;28920;59.862;30.636;2022-10-15T09:56:50;8.98;;;4.53;;
43325;SDS011;28920;59.862;30.636;2022-10-15T09:59:19;9.35;;;4.25;;
43325;SDS011;28920;59.862;30.636;2022-10-15T10:04:19;8.55;;;4.65;;
43325;SDS011;28920;59.862;30.636;2022-10-15T10:06:50;5.82;;;4.10;;
43325;SDS011;28920;59.862;30.636;2022-10-15T10:09:20;7.07;;;4.62;;
43325;SDS011;28920;59.862;30.636;2022-10-15T10:11:49;5.87;;;3.67;;
43325;SDS011;28920;59.862;30.636;2022-10-15T10:14:26;9.57;;;4.68;;
43325;SDS011;28920;59.862;30.636;2022-10-15T10:17:12;7.12;;;4.57;;
43325;SDS011;28920;59.862;30.636;2022-10-15T10:19:41;5.80;;;3.80;;
43325;SDS011;28920;59.862;30.636;2022-10-15T10:27:19;5.18;;;3.65;;
43325;SDS011;28920;59.862;30.636;2022-10-15T10:29:48;9.75;;;5.53;;
43325;SDS011;28920;59.862;30.636;2022-10-15T10:32:17;9.68;;;4.45;;
43325;SDS011;28920;59.862;30.636;2022-10-15T10:34:44;10.88;;;6.18;;
43325;SDS011;28920;59.862;30.636;2022-10-15T10:37:11;9.52;;;5.45;;
43325;SDS011;28920;59.862;30.636;2022-10-15T10:39:38;9.48;;;5.15;;
43325;SDS011;28920;59.862;30.636;2022-10-15T10:42:05;9.30;;;4.50;;
43325;SDS011;28920;59.862;30.636;2022-10-15T10:49:31;7.30;;;5.18;;
43325;SDS011;28920;59.862;30.636;2022-10-15T10:51:59;8.57;;;5.18;;
43325;SDS011;28920;59.862;30.636;2022-10-15T10:54:25;10.13;;;5.32;;
43325;SDS011;28920;59.862;30.636;2022-10-15T10:56:53;9.75;;;5.00;;
43325;SDS011;28920;59.862;30.636;2022-10-15T10:59:22;7.78;;;4.75;;
43325;SDS011;28920;59.862;30.636;2022-10-15T11:01:50;7.37;;;4.70;;
43325;SDS011;28920;59.862;30.636;2022-10-15T11:04:18;8.90;;;4.97;;
43325;SDS011;28920;59.862;30.636;2022-10-15T11:11:44;8.98;;;4.97;;
43325;SDS011;28920;59.862;30.636;2022-10-15T11:14:25;10.38;;;5.45;;
43325;SDS011;28920;59.862;30.636;2022-10-15T11:17:06;11.77;;;5.57;;
43325;SDS011;28920;59.862;30.636;2022-10-15T11:19:43;11.45;;;5.90;;
43325;SDS011;28920;59.862;30.636;2022-10-15T11:22:26;7.90;;;5.35;;
43325;SDS011;28920;59.862;30.636;2022-10-15T11:25:18;10.25;;;4.97;;
43325;SDS011;28920;59.862;30.636;2022-10-15T11:32:57;8.50;;;4.40;;
43325;SDS011;28920;59.862;30.636;2022-10-15T11:35:32;13.57;;;5.50;;
43325;SDS011;28920;59.862;30.636;2022-10-15T11:38:02;9.88;;;5.30;;
43325;SDS011;28920;59.862;30.636;2022-10-15T11:40:31;9.02;;;5.35;;
43325;SDS011;28920;59.862;30.636;2022-10-15T11:43:02;9.68;;;5.82;;
43325;SDS011;28920;59.862;30.636;2022-10-15T11:45:43;12.52;;;6.80;;
43325;SDS011;28920;59.862;30.636;2022-10-15T11:51:10;15.57;;;6.78;;
43325;SDS011;28920;59.862;30.636;2022-10-15T11:53:53;13.88;;;6.30;;
43325;SDS011;28920;59.862;30.636;2022-10-15T11:56:31;15.60;;;7.00;;
43325;SDS011;28920;59.862;30.636;2022-10-15T12:01:36;20.50;;;8.05;;
43325;SDS011;28920;59.862;30.636;2022-10-15T12:04:09;10.68;;;6.20;;
43325;SDS011;28920;59.862;30.636;2022-10-15T12:06:42;10.95;;;6.20;;
43325;SDS011;28920;59.862;30.636;2022-10-15T12:12:59;9.45;;;6.20;;
43325;SDS011;28920;59.862;30.636;2022-10-15T12:15:32;14.80;;;7.25;;
43325;SDS011;28920;59.862;30.636;2022-10-15T12:18:02;10.00;;;6.65;;
43325;SDS011;28920;59.862;30.636;2022-10-15T12:20:32;13.88;;;6.72;;
43325;SDS011;28920;59.862;30.636;2022-10-15T12:22:58;8.68;;;5.75;;
43325;SDS011;28920;59.862;30.636;2022-10-15T12:25:38;11.02;;;5.87;;
43325;SDS011;28920;59.862;30.636;2022-10-15T12:28:11;10.48;;;6.78;;
43325;SDS011;28920;59.862;30.636;2022-10-15T12:35:40;17.00;;;6.70;;
43325;SDS011;28920;59.862;30.636;2022-10-15T12:38:09;10.80;;;5.82;;
43325;SDS011;28920;59.862;30.636;2022-10-15T12:40:43;9.57;;;6.35;;
43325;SDS011;28920;59.862;30.636;2022-10-15T12:43:12;11.32;;;6.20;;
43325;SDS011;28920;59.862;30.636;2022-10-15T12:45:50;10.52;;;6.65;;
43325;SDS011;28920;59.862;30.636;2022-10-15T12:48:20;15.80;;;6.93;;
43325;SDS011;28920;59.862;30.636;2022-10-15T12:53:52;15.25;;;7.90;;
43325;SDS011;28920;59.862;30.636;2022-10-15T12:56:21;24.30;;;7.47;;
43325;SDS011;28920;59.862;30.636;2022-10-15T12:58:48;9.65;;;6.00;;
43325;SDS011;28920;59.862;30.636;2022-10-15T13:01:29;13.27;;;6.53;;
43325;SDS011;28920;59.862;30.636;2022-10-15T13:04:15;12.82;;;6.53;;
43325;SDS011;28920;59.862;30.636;2022-10-15T13:06:42;11.10;;;6.28;;
43325;SDS011;28920;59.862;30.636;2022-10-15T13:09:17;14.25;;;6.07;;
43325;SDS011;28920;59.862;30.636;2022-10-15T13:16:44;9.25;;;5.45;;
43325;SDS011;28920;59.862;30.636;2022-10-15T13:19:16;7.60;;;5.62;;
43325;SDS011;28920;59.862;30.636;2022-10-15T13:21:49;10.27;;;4.93;;
43325;SDS011;28920;59.862;30.636;2022-10-15T13:24:17;12.23;;;5.18;;
43325;SDS011;28920;59.862;30.636;2022-10-15T13:26:44;7.00;;;4.45;;
43325;SDS011;28920;59.862;30.636;2022-10-15T13:29:13;8.07;;;5.07;;
43325;SDS011;28920;59.862;30.636;2022-10-15T13:31:40;9.02;;;4.70;;
43325;SDS011;28920;59.862;30.636;2022-10-15T13:39:20;10.15;;;5.55;;
43325;SDS011;28920;59.862;30.636;2022-10-15T13:44:19;12.20;;;4.30;;
43325;SDS011;28920;59.862;30.636;2022-10-15T13:46:45;11.68;;;6.25;;
43325;SDS011;28920;59.862;30.636;2022-10-15T13:49:12;7.95;;;5.22;;
43325;SDS011;28920;59.862;30.636;2022-10-15T13:51:39;8.70;;;5.93;;
43325;SDS011;28920;59.862;30.636;2022-10-15T13:54:09;12.40;;;6.37;;
43325;SDS011;28920;59.862;30.636;2022-10-15T14:01:35;24.48;;;11.40;;
43325;SDS011;28920;59.862;30.636;2022-10-15T14:04:12;25.62;;;16.45;;
43325;SDS011;28920;59.862;30.636;2022-10-15T14:06:40;20.45;;;12.82;;
43325;SDS011;28920;59.862;30.636;2022-10-15T14:09:13;19.02;;;9.60;;
43325;SDS011;28920;59.862;30.636;2022-10-15T14:11:40;12.23;;;6.82;;
43325;SDS011;28920;59.862;30.636;2022-10-15T14:23:33;13.68;;;9.27;;
43325;SDS011;28920;59.862;30.636;2022-10-15T14:26:01;10.52;;;7.57;;
43325;SDS011;28920;59.862;30.636;2022-10-15T14:28:29;13.20;;;6.35;;
43325;SDS011;28920;59.862;30.636;2022-10-15T14:30:56;10.65;;;6.57;;
43325;SDS011;28920;59.862;30.636;2022-10-15T14:33:28;28.87;;;24.50;;
43325;SDS011;28920;59.862;30.636;2022-10-15T14:36:02;18.35;;;11.77;;
43325;SDS011;28920;59.862;30.636;2022-10-15T14:38:29;18.05;;;10.35;;
43325;SDS011;28920;59.862;30.636;2022-10-15T14:46:00;13.95;;;10.18;;
43325;SDS011;28920;59.862;30.636;2022-10-15T14:48:30;13.98;;;8.32;;
43325;SDS011;28920;59.862;30.636;2022-10-15T14:51:02;13.65;;;8.23;;
43325;SDS011;28920;59.862;30.636;2022-10-15T14:53:32;14.30;;;8.40;;
43325;SDS011;28920;59.862;30.636;2022-10-15T14:56:03;16.08;;;11.77;;
43325;SDS011;28920;59.862;30.636;2022-10-15T14:58:34;13.02;;;8.43;;
43325;SDS011;28920;59.862;30.636;2022-10-15T15:01:05;13.90;;;7.80;;
43325;SDS011;28920;59.862;30.636;2022-10-15T15:08:27;11.77;;;6.97;;
43325;SDS011;28920;59.862;30.636;2022-10-15T15:10:55;11.55;;;6.70;;
43325;SDS011;28920;59.862;30.636;2022-10-15T15:13:26;7.67;;;5.60;;
43325;SDS011;28920;59.862;30.636;2022-10-15T15:15:57;16.90;;;10.68;;
43325;SDS011;28920;59.862;30.636;2022-10-15T15:18:24;20.40;;;10.95;;
43325;SDS011;28920;59.862;30.636;2022-10-15T15:20:52;17.98;;;10.85;;
43325;SDS011;28920;59.862;30.636;2022-10-15T15:23:22;14.95;;;8.30;;
43325;SDS011;28920;59.862;30.636;2022-10-15T15:30:40;10.30;;;6.72;;
43325;SDS011;28920;59.862;30.636;2022-10-15T15:33:07;11.90;;;6.45;;
43325;SDS011;28920;59.862;30.636;2022-10-15T15:35:35;20.83;;;7.93;;
43325;SDS011;28920;59.862;30.636;2022-10-15T15:38:05;10.35;;;6.47;;
43325;SDS011;28920;59.862;30.636;2022-10-15T15:40:32;17.60;;;9.18;;
43325;SDS011;28920;59.862;30.636;2022-10-15T15:42:58;13.30;;;9.20;;
43325;SDS011;28920;59.862;30.636;2022-10-15T15:45:25;16.60;;;8.43;;
43325;SDS011;28920;59.862;30.636;2022-10-15T15:52:51;17.00;;;9.63;;
43325;SDS011;28920;59.862;30.636;2022-10-15T15:55:18;18.75;;;10.80;;
43325;SDS011;28920;59.862;30.636;2022-10-15T15:57:47;30.08;;;14.87;;
43325;SDS011;28920;59.862;30.636;2022-10-15T16:00:14;36.80;;;19.10;;
43325;SDS011;28920;59.862;30.636;2022-10-15T16:02:41;21.40;;;11.95;;
43325;SDS011;28920;59.862;30.636;2022-10-15T16:05:08;46.55;;;25.62;;
43325;SDS011;28920;59.862;30.636;2022-10-15T16:07:36;23.67;;;14.73;;
43325;SDS011;28920;59.862;30.636;2022-10-15T16:15:02;42.62;;;21.95;;
43325;SDS011;28920;59.862;30.636;2022-10-15T16:17:29;25.88;;;16.23;;
43325;SDS011;28920;59.862;30.636;2022-10-15T16:19:55;25.98;;;15.40;;
43325;SDS011;28920;59.862;30.636;2022-10-15T16:22:22;29.20;;;16.30;;
43325;SDS011;28920;59.862;30.636;2022-10-15T16:24:49;32.22;;;15.93;;
43325;SDS011;28920;59.862;30.636;2022-10-15T16:27:15;38.95;;;25.37;;
43325;SDS011;28920;59.862;30.636;2022-10-15T16:29:42;29.40;;;25.92;;
43325;SDS011;28920;59.862;30.636;2022-10-15T16:37:13;13.68;;;7.28;;
43325;SDS011;28920;59.862;30.636;2022-10-15T16:39:41;13.02;;;7.00;;
43325;SDS011;28920;59.862;30.636;2022-10-15T16:42:08;16.98;;;9.13;;
43325;SDS011;28920;59.862;30.636;2022-10-15T16:44:35;16.55;;;10.23;;
43325;SDS011;28920;59.862;30.636;2022-10-15T16:47:03;21.30;;;13.38;;
43325;SDS011;28920;59.862;30.636;2022-10-15T16:49:30;21.85;;;13.60;;
43325;SDS011;28920;59.862;30.636;2022-10-15T16:51:57;41.92;;;22.13;;
43325;SDS011;28920;59.862;30.636;2022-10-15T16:59:23;30.25;;;15.95;;
43325;SDS011;28920;59.862;30.636;2022-10-15T17:01:50;20.37;;;12.20;;
43325;SDS011;28920;59.862;30.636;2022-10-15T17:04:16;69.00;;;41.30;;
43325;SDS011;28920;59.862;30.636;2022-10-15T17:06:43;17.15;;;10.73;;
43325;SDS011;28920;59.862;30.636;2022-10-15T17:09:10;21.00;;;13.93;;
43325;SDS011;28920;59.862;30.636;2022-10-15T17:11:37;22.80;;;19.00;;
43325;SDS011;28920;59.862;30.636;2022-10-15T17:14:05;17.52;;;11.43;;
43325;SDS011;28920;59.862;30.636;2022-10-15T17:21:31;26.00;;;13.52;;
43325;SDS011;28920;59.862;30.636;2022-10-15T17:23:58;57.92;;;33.33;;
43325;SDS011;28920;59.862;30.636;2022-10-15T17:26:26;29.27;;;17.55;;
43325;SDS011;28920;59.862;30.636;2022-10-15T17:28:53;18.98;;;11.93;;
43325;SDS011;28920;59.862;30.636;2022-10-15T17:31:20;22.80;;;12.77;;
43325;SDS011;28920;59.862;30.636;2022-10-15T17:33:48;17.87;;;10.55;;
43325;SDS011;28920;59.862;30.636;2022-10-15T17:36:15;13.38;;;8.10;;
43325;SDS011;28920;59.862;30.636;2022-10-15T17:43:40;16.40;;;8.98;;
43325;SDS011;28920;59.862;30.636;2022-10-15T17:46:09;14.13;;;10.23;;
43325;SDS011;28920;59.862;30.636;2022-10-15T17:48:36;15.85;;;11.00;;
43325;SDS011;28920;59.862;30.636;2022-10-15T17:51:04;16.73;;;10.25;;
43325;SDS011;28920;59.862;30.636;2022-10-15T17:53:31;13.80;;;8.27;;
43325;SDS011;28920;59.862;30.636;2022-10-15T17:56:07;10.52;;;6.50;;
43325;SDS011;28920;59.862;30.636;2022-10-15T17:58:34;10.68;;;6.90;;
43325;SDS011;28920;59.862;30.636;2022-10-15T18:06:05;11.15;;;6.30;;
43325;SDS011;28920;59.862;30.636;2022-10-15T18:08:32;9.43;;;6.03;;
43325;SDS011;28920;59.862;30.636;2022-10-15T18:10:58;17.92;;;8.32;;
43325;SDS011;28920;59.862;30.636;2022-10-15T18:13:26;9.55;;;6.30;;
43325;SDS011;28920;59.862;30.636;2022-10-15T18:15:53;12.27;;;7.30;;
43325;SDS011;28920;59.862;30.636;2022-10-15T18:18:20;9.52;;;6.05;;
43325;SDS011;28920;59.862;30.636;2022-10-15T18:20:47;9.15;;;6.50;;
43325;SDS011;28920;59.862;30.636;2022-10-15T18:28:12;9.82;;;6.37;;
43325;SDS011;28920;59.862;30.636;2022-10-15T18:30:40;9.82;;;6.18;;
43325;SDS011;28920;59.862;30.636;2022-10-15T18:33:08;8.57;;;6.32;;
43325;SDS011;28920;59.862;30.636;2022-10-15T18:35:35;10.10;;;6.07;;
43325;SDS011;28920;59.862;30.636;2022-10-15T18:38:02;11.80;;;6.10;;
43325;SDS011;28920;59.862;30.636;2022-10-15T18:40:30;12.37;;;6.35;;
43325;SDS011;28920;59.862;30.636;2022-10-15T18:42:57;12.73;;;7.72;;